createdAt,value
2019-05-11T03:59:38.656Z,7.20
2019-05-11T04:02:07.460Z,6.90
2019-05-11T04:04:36.236Z,6.25
2019-05-11T04:07:04.965Z,6.27
2019-05-11T04:09:33.699Z,7.13
2019-05-11T04:12:02.498Z,7.33
2019-05-11T04:14:31.234Z,7.55
2019-05-11T04:16:59.967Z,6.78
2019-05-11T04:19:28.802Z,6.90
2019-05-11T04:21:57.569Z,7.50
2019-05-11T04:24:26.924Z,6.67
2019-05-11T04:26:55.684Z,7.17
2019-05-11T04:29:24.452Z,6.47
2019-05-11T04:31:53.202Z,6.13
2019-05-11T04:34:21.952Z,6.80
2019-05-11T04:36:50.728Z,6.30
2019-05-11T04:39:19.461Z,6.40
2019-05-11T04:41:48.222Z,12.15
2019-05-11T04:44:17.018Z,11.40
2019-05-11T04:46:45.756Z,7.03
2019-05-11T04:49:14.490Z,6.00
2019-05-11T04:51:43.313Z,5.70
2019-05-11T04:54:12.065Z,5.58
2019-05-11T04:56:40.801Z,6.10
2019-05-11T04:59:09.668Z,6.20
2019-05-11T05:01:38.401Z,5.50
2019-05-11T05:04:14.080Z,4.37
2019-05-11T05:06:38.995Z,4.67
2019-05-11T05:09:08.057Z,5.33
2019-05-11T05:11:38.370Z,6.27
2019-05-11T05:14:10.159Z,5.63
2019-05-11T05:16:37.764Z,5.60
2019-05-11T05:19:06.641Z,5.40
2019-05-11T05:21:35.380Z,6.10
2019-05-11T05:24:04.117Z,5.90
2019-05-11T05:26:32.917Z,5.17
2019-05-11T05:29:01.739Z,6.20
2019-05-11T05:31:30.559Z,5.20
2019-05-11T05:34:01.326Z,5.00
2019-05-11T05:36:29.857Z,4.73
2019-05-11T05:38:58.586Z,4.90
2019-05-11T05:41:27.327Z,4.40
2019-05-11T05:43:56.215Z,4.92
2019-05-11T05:46:24.958Z,5.30
2019-05-11T05:48:53.786Z,4.63
2019-05-11T05:51:22.606Z,5.00
2019-05-11T05:53:51.817Z,5.33
2019-05-11T05:56:21.913Z,4.70
2019-05-11T05:58:52.808Z,4.93
2019-05-11T06:01:21.595Z,4.33
2019-05-11T06:03:50.390Z,4.27
2019-05-11T06:06:19.209Z,5.00
2019-05-11T06:08:50.640Z,5.13
2019-05-11T06:11:19.647Z,4.70
2019-05-11T06:13:48.461Z,5.10
2019-05-11T06:16:17.281Z,4.90
2019-05-11T06:18:46.098Z,5.03
2019-05-11T06:21:15.048Z,4.40
2019-05-11T06:23:43.935Z,4.87
2019-05-11T06:26:12.876Z,4.67
2019-05-11T06:28:41.701Z,4.60
2019-05-11T06:31:10.644Z,4.35
2019-05-11T06:33:39.461Z,4.20
2019-05-11T06:36:08.325Z,4.87
2019-05-11T06:38:37.522Z,3.43
2019-05-11T06:41:08.100Z,4.80
2019-05-11T06:43:36.838Z,4.10
2019-05-11T06:46:06.521Z,4.37
2019-05-11T06:48:35.889Z,3.80
2019-05-11T06:51:05.292Z,3.67
2019-05-11T06:53:34.188Z,3.53
2019-05-11T06:56:03.015Z,4.10
2019-05-11T06:58:31.799Z,4.27
2019-05-11T07:01:00.791Z,4.20
2019-05-11T07:03:29.698Z,4.10
2019-05-11T07:05:58.550Z,3.63
2019-05-11T07:08:27.411Z,3.60
2019-05-11T07:10:56.191Z,4.50
2019-05-11T07:13:24.986Z,3.93
2019-05-11T07:15:53.788Z,3.73
2019-05-11T07:18:22.663Z,3.55
2019-05-11T07:20:51.557Z,2.70
2019-05-11T07:23:20.415Z,3.40
2019-05-11T07:25:49.337Z,3.20
2019-05-11T07:28:18.147Z,3.03
2019-05-11T07:30:47.182Z,3.37
2019-05-11T07:33:18.169Z,2.85
2019-05-11T07:35:49.554Z,2.83
2019-05-11T07:38:18.594Z,3.13
2019-05-11T07:40:48.030Z,2.13
2019-05-11T07:43:18.820Z,1.93
2019-05-11T07:45:48.023Z,2.87
2019-05-11T07:48:18.651Z,1.87
2019-05-11T07:50:48.468Z,2.92
2019-05-11T07:53:18.641Z,2.25
2019-05-11T07:55:48.470Z,3.13
2019-05-11T07:58:20.209Z,2.92
2019-05-11T08:00:48.983Z,2.80
2019-05-11T08:03:18.200Z,3.30
2019-05-11T08:05:47.869Z,2.53
2019-05-11T08:08:18.085Z,2.92
2019-05-11T08:10:48.368Z,2.70
2019-05-11T08:13:18.060Z,2.47
2019-05-11T08:15:48.797Z,2.73
2019-05-11T08:18:18.910Z,2.40
2019-05-11T08:20:48.042Z,1.80
2019-05-11T08:23:18.072Z,3.20
2019-05-11T08:25:48.636Z,3.70
2019-05-11T08:28:18.425Z,3.33
2019-05-11T08:30:48.620Z,2.40
2019-05-11T08:33:18.366Z,3.00
2019-05-11T08:35:48.085Z,2.95
2019-05-11T08:38:18.316Z,2.58
2019-05-11T08:40:48.498Z,2.90
2019-05-11T08:43:18.122Z,3.20
2019-05-11T08:45:48.534Z,2.80
2019-05-11T08:48:18.728Z,3.20
2019-05-11T08:50:48.857Z,2.13
2019-05-11T08:53:18.305Z,2.70
2019-05-11T08:55:48.537Z,2.63
2019-05-11T08:58:19.394Z,2.80
2019-05-11T09:00:49.020Z,3.10
2019-05-11T09:03:18.052Z,2.67
2019-05-11T09:05:48.535Z,3.00
2019-05-11T09:08:24.606Z,3.02
2019-05-11T09:11:03.530Z,2.83
2019-05-11T09:13:39.540Z,2.77
2019-05-11T09:16:09.733Z,2.97
2019-05-11T09:18:38.712Z,3.80
2019-05-11T09:21:08.350Z,4.17
2019-05-11T09:23:40.684Z,3.27
2019-05-11T09:26:08.946Z,3.37
2019-05-11T09:28:38.590Z,3.33
2019-05-11T09:31:08.503Z,3.10
2019-05-11T09:33:38.764Z,3.53
2019-05-11T09:36:08.533Z,3.73
2019-05-11T09:38:54.939Z,3.00
2019-05-11T09:41:28.905Z,3.53
2019-05-11T09:43:58.682Z,4.10
2019-05-11T09:46:28.185Z,3.10
2019-05-11T09:48:59.001Z,3.40
2019-05-11T09:51:28.786Z,3.70
2019-05-11T09:53:58.759Z,3.30
2019-05-11T09:56:28.771Z,4.10
2019-05-11T09:58:58.317Z,3.10
2019-05-11T10:01:29.467Z,3.93
2019-05-11T10:03:58.507Z,4.27
2019-05-11T10:06:28.189Z,4.65
2019-05-11T10:08:58.015Z,4.00
2019-05-11T10:11:28.251Z,4.77
2019-05-11T10:13:57.936Z,4.00
2019-05-11T10:16:28.055Z,3.97
2019-05-11T10:18:59.163Z,5.23
2019-05-11T10:21:28.038Z,3.80
2019-05-11T10:23:58.113Z,5.00
2019-05-11T10:26:27.879Z,4.73
2019-05-11T10:28:58.510Z,3.47
2019-05-11T10:31:29.119Z,4.47
2019-05-11T10:33:58.183Z,4.20
2019-05-11T10:36:28.168Z,4.13
2019-05-11T10:38:58.817Z,3.73
2019-05-11T10:41:28.480Z,4.30
2019-05-11T10:43:58.266Z,4.53
2019-05-11T10:46:28.756Z,4.37
2019-05-11T10:48:58.692Z,4.40
2019-05-11T10:51:28.901Z,4.80
2019-05-11T10:53:58.003Z,4.50
2019-05-11T10:56:28.412Z,4.00
2019-05-11T10:58:58.708Z,4.30
2019-05-11T11:01:28.719Z,4.50
2019-05-11T11:03:58.674Z,3.63
2019-05-11T11:06:28.326Z,4.43
2019-05-11T11:08:58.029Z,4.67
2019-05-11T11:11:27.829Z,4.07
2019-05-11T11:13:58.458Z,4.30
2019-05-11T11:16:36.893Z,4.77
2019-05-11T11:18:58.914Z,4.30
2019-05-11T11:21:28.065Z,3.70
2019-05-11T11:23:58.716Z,3.27
2019-05-11T11:26:28.493Z,3.70
2019-05-11T11:28:58.273Z,3.67
2019-05-11T11:31:28.810Z,3.50
2019-05-11T11:33:58.485Z,3.90
2019-05-11T11:36:28.499Z,3.70
2019-05-11T11:38:58.523Z,3.87
2019-05-11T11:41:29.909Z,3.53
2019-05-11T11:43:58.665Z,3.67
2019-05-11T11:46:27.925Z,4.47
2019-05-11T11:48:58.099Z,5.63
2019-05-11T11:51:28.656Z,3.67
2019-05-11T11:53:58.400Z,3.77
2019-05-11T11:56:28.441Z,3.17
2019-05-11T11:58:57.926Z,2.83
2019-05-11T12:01:28.125Z,2.80
2019-05-11T12:03:58.113Z,3.20
2019-05-11T12:06:27.970Z,2.90
2019-05-11T12:08:58.535Z,2.77
2019-05-11T12:11:28.106Z,2.60
2019-05-11T12:13:57.988Z,3.20
2019-05-11T12:16:28.127Z,2.17
2019-05-11T12:18:57.900Z,2.17
2019-05-11T12:21:27.729Z,2.70
2019-05-11T12:23:58.512Z,3.00
2019-05-11T12:26:28.182Z,2.90
2019-05-11T12:28:57.850Z,2.97
2019-05-11T12:31:30.658Z,2.70
2019-05-11T12:33:58.636Z,2.27
2019-05-11T12:36:28.180Z,2.13
2019-05-11T12:39:03.370Z,1.97
2019-05-11T12:41:32.246Z,2.67
2019-05-11T12:44:02.357Z,2.17
2019-05-11T12:46:31.465Z,2.83
2019-05-11T12:49:00.388Z,2.40
2019-05-11T12:51:30.081Z,1.90
2019-05-11T12:54:16.158Z,2.57
2019-05-11T12:57:02.277Z,2.70
2019-05-11T12:59:48.771Z,2.30
2019-05-11T13:02:38.579Z,1.97
2019-05-11T13:05:25.043Z,2.20
2019-05-11T13:08:15.544Z,1.93
2019-05-11T13:11:01.199Z,1.80
2019-05-11T13:13:45.396Z,2.50
2019-05-11T13:16:30.642Z,2.10
2019-05-11T13:19:17.772Z,2.17
2019-05-11T13:22:05.066Z,2.20
2019-05-11T13:24:49.038Z,1.87
2019-05-11T13:27:38.676Z,1.87
2019-05-11T13:30:09.877Z,1.70
2019-05-11T13:32:39.395Z,2.03
2019-05-11T13:35:09.260Z,1.90
2019-05-11T13:37:38.852Z,2.00
2019-05-11T13:40:08.583Z,1.50
2019-05-11T13:42:38.605Z,1.60
2019-05-11T13:45:08.794Z,1.87
2019-05-11T13:47:52.478Z,1.77
2019-05-11T13:50:13.930Z,1.75
2019-05-11T13:52:42.845Z,1.90
2019-05-11T13:55:11.686Z,1.50
2019-05-11T13:57:41.908Z,1.40
2019-05-11T14:00:12.641Z,2.13
2019-05-11T14:02:41.699Z,1.43
2019-05-11T14:05:14.453Z,1.47
2019-05-11T14:07:43.255Z,1.57
2019-05-11T14:10:13.165Z,1.77
2019-05-11T14:12:42.195Z,1.80
2019-05-11T14:15:11.199Z,1.73
2019-05-11T14:17:40.245Z,3.10
2019-05-11T14:20:09.419Z,1.57
2019-05-11T14:22:40.022Z,1.67
2019-05-11T14:25:09.179Z,1.17
2019-05-11T14:27:39.087Z,1.37
2019-05-11T14:30:10.638Z,1.60
2019-05-11T14:32:39.612Z,1.37
2019-05-11T14:35:12.095Z,1.23
2019-05-11T14:37:39.861Z,2.30
2019-05-11T14:40:10.216Z,1.50
2019-05-11T14:42:39.060Z,1.47
2019-05-11T14:45:08.706Z,1.57
2019-05-11T14:47:38.771Z,1.50
2019-05-11T14:50:08.775Z,1.20
2019-05-11T14:52:38.981Z,1.30
2019-05-11T14:55:08.497Z,1.13
2019-05-11T14:57:39.611Z,1.50
2019-05-11T15:00:09.605Z,1.20
2019-05-11T15:02:49.313Z,1.90
2019-05-11T15:05:19.987Z,1.73
2019-05-11T15:07:52.061Z,1.57
2019-05-11T15:10:20.210Z,1.40
2019-05-11T15:12:49.122Z,1.33
2019-05-11T15:15:19.018Z,1.55
2019-05-11T15:17:49.154Z,1.60
2019-05-11T15:20:18.944Z,1.30
2019-05-11T15:22:48.926Z,1.33
2019-05-11T15:25:19.580Z,1.47
2019-05-11T15:27:49.077Z,1.70
2019-05-11T15:30:20.088Z,1.77
2019-05-11T15:32:48.996Z,1.93
2019-05-11T15:35:18.745Z,1.67
2019-05-11T15:37:48.876Z,1.40
2019-05-11T15:40:19.143Z,1.80
2019-05-11T15:42:48.603Z,1.30
2019-05-11T15:45:19.911Z,1.60
2019-05-11T15:47:49.093Z,1.70
2019-05-11T15:50:20.272Z,1.40
2019-05-11T15:52:49.302Z,1.40
2019-05-11T15:55:20.064Z,2.13
2019-05-11T15:57:49.252Z,1.73
2019-05-11T16:00:19.699Z,1.23
2019-05-11T16:02:49.226Z,1.20
2019-05-11T16:05:19.435Z,1.40
2019-05-11T16:07:50.586Z,1.33
2019-05-11T16:10:30.163Z,1.30
2019-05-11T16:13:00.098Z,1.20
2019-05-11T16:15:29.338Z,1.83
2019-05-11T16:17:58.167Z,1.10
2019-05-11T16:20:28.514Z,1.30
2019-05-11T16:22:59.496Z,0.90
2019-05-11T16:25:28.528Z,1.60
2019-05-11T16:27:57.383Z,1.30
2019-05-11T16:30:28.768Z,1.10
2019-05-11T16:32:58.105Z,0.80
2019-05-11T16:35:28.150Z,1.10
2019-05-11T16:37:59.266Z,1.07
2019-05-11T16:40:29.567Z,1.50
2019-05-11T16:42:58.844Z,1.50
2019-05-11T16:45:28.306Z,1.20
2019-05-11T16:47:58.875Z,0.97
2019-05-11T16:50:28.337Z,1.67
2019-05-11T16:52:58.516Z,0.97
2019-05-11T16:55:28.090Z,1.23
2019-05-11T16:57:58.829Z,2.20
2019-05-11T17:00:27.488Z,1.37
2019-05-11T17:02:57.674Z,1.80
2019-05-11T17:05:30.529Z,1.30
2019-05-11T17:07:58.813Z,1.27
2019-05-11T17:10:28.522Z,1.00
2019-05-11T17:12:59.085Z,1.27
2019-05-11T17:15:28.857Z,1.10
2019-05-11T17:17:58.761Z,1.20
2019-05-11T17:20:28.012Z,1.40
2019-05-11T17:22:56.825Z,1.83
2019-05-11T17:25:25.601Z,1.67
2019-05-11T17:27:54.371Z,1.83
2019-05-11T17:30:23.154Z,1.33
2019-05-11T17:32:53.310Z,1.33
2019-05-11T17:35:22.114Z,1.17
2019-05-11T17:37:51.113Z,1.40
2019-05-11T17:40:23.324Z,0.90
2019-05-11T17:42:53.628Z,1.00
2019-05-11T17:45:21.167Z,1.30
2019-05-11T17:47:50.273Z,1.77
2019-05-11T17:50:19.434Z,1.37
2019-05-11T17:52:48.343Z,1.73
2019-05-11T17:55:18.544Z,1.20
2019-05-11T17:57:49.511Z,1.10
2019-05-11T18:00:20.026Z,1.27
2019-05-11T18:02:49.222Z,2.00
2019-05-11T18:05:18.220Z,2.30
2019-05-11T18:07:47.132Z,1.20
2019-05-11T18:10:18.280Z,1.50
2019-05-11T18:12:48.524Z,1.30
2019-05-11T18:15:18.549Z,1.50
2019-05-11T18:17:48.611Z,1.33
2019-05-11T18:20:21.428Z,1.20
2019-05-11T18:22:49.276Z,1.53
2019-05-11T18:25:18.687Z,1.12
2019-05-11T18:27:48.405Z,1.60
2019-05-11T18:30:17.249Z,1.50
2019-05-11T18:32:48.625Z,1.40
2019-05-11T18:35:19.114Z,1.30
2019-05-11T18:37:47.840Z,1.47
2019-05-11T18:40:18.745Z,1.30
2019-05-11T18:42:48.754Z,1.77
2019-05-11T18:45:19.069Z,1.97
2019-05-11T18:47:49.250Z,1.30
